createdAt,value
2022-12-28T00:02:19.263Z,87.29
2022-12-28T00:04:47.098Z,87.83
2022-12-28T00:07:16.194Z,87.99
2022-12-28T00:09:43.860Z,88.24
2022-12-28T00:12:11.515Z,88.50
2022-12-28T00:14:39.073Z,88.79
2022-12-28T00:17:06.977Z,87.85
2022-12-28T00:19:34.600Z,88.18
2022-12-28T00:22:02.091Z,88.87
2022-12-28T00:24:31.177Z,89.07
2022-12-28T00:26:58.936Z,89.48
2022-12-28T00:29:26.571Z,88.90
2022-12-28T00:31:54.242Z,88.79
2022-12-28T00:34:21.792Z,89.34
2022-12-28T00:37:09.269Z,89.05
2022-12-28T00:39:42.378Z,88.70
2022-12-28T00:42:10.804Z,88.39
2022-12-28T00:44:38.468Z,88.17
2022-12-28T00:47:06.210Z,87.77
2022-12-28T00:49:33.969Z,88.30
2022-12-28T00:52:01.518Z,88.28
2022-12-28T00:54:29.216Z,88.29
2022-12-28T00:56:58.052Z,88.26
2022-12-28T00:59:25.568Z,88.29
2022-12-28T01:01:53.228Z,88.21
2022-12-28T01:04:20.828Z,88.52
2022-12-28T01:06:48.419Z,87.87
2022-12-28T01:09:16.001Z,87.95
2022-12-28T01:11:43.540Z,87.05
2022-12-28T01:14:12.536Z,87.25
2022-12-28T01:16:40.432Z,87.10
2022-12-28T01:19:09.150Z,87.16
2022-12-28T01:21:37.247Z,87.99
2022-12-28T01:24:07.741Z,88.49
2022-12-28T01:26:35.525Z,88.79
2022-12-28T01:29:03.383Z,88.81
2022-12-28T01:31:32.925Z,88.93
2022-12-28T01:34:03.252Z,89.66
2022-12-28T01:36:32.777Z,89.46
2022-12-28T01:39:02.877Z,89.52
2022-12-28T01:41:31.880Z,88.87
2022-12-28T01:44:45.155Z,88.96
2022-12-28T01:47:19.485Z,88.89
2022-12-28T01:49:55.412Z,88.78
2022-12-28T01:52:29.082Z,89.12
2022-12-28T01:55:01.408Z,88.80
2022-12-28T01:57:32.682Z,88.26
2022-12-28T02:00:04.923Z,88.68
2022-12-28T02:02:35.777Z,88.42
2022-12-28T02:05:03.935Z,88.17
2022-12-28T02:07:41.142Z,88.40
2022-12-28T02:10:44.538Z,88.37
2022-12-28T02:13:00.156Z,88.97
2022-12-28T02:15:28.772Z,89.37
2022-12-28T02:18:01.693Z,89.43
2022-12-28T02:20:35.059Z,89.17
2022-12-28T02:23:28.517Z,88.56
2022-12-28T02:26:20.364Z,89.65
2022-12-28T02:29:15.034Z,88.77
2022-12-28T02:31:51.702Z,88.56
2022-12-28T02:34:26.988Z,88.98
2022-12-28T02:37:01.677Z,88.94
2022-12-28T02:39:35.107Z,88.74
2022-12-28T02:42:05.286Z,87.96
2022-12-28T02:44:53.646Z,87.75
2022-12-28T02:47:39.173Z,87.26
2022-12-28T02:50:09.529Z,87.37
2022-12-28T02:52:55.052Z,87.70
2022-12-28T02:55:52.302Z,88.44
2022-12-28T02:58:44.721Z,88.27
2022-12-28T03:01:25.266Z,88.41
2022-12-28T03:04:06.176Z,88.11
2022-12-28T03:07:00.737Z,87.97
2022-12-28T03:09:35.090Z,88.30
2022-12-28T03:12:09.691Z,88.70
2022-12-28T03:14:44.581Z,88.82
2022-12-28T03:17:33.256Z,88.83
2022-12-28T03:20:24.068Z,89.16
2022-12-28T03:23:11.488Z,88.99
2022-12-28T03:26:01.192Z,88.69
2022-12-28T03:28:50.004Z,89.41
2022-12-28T03:31:22.333Z,90.11
2022-12-28T03:34:06.692Z,89.84
2022-12-28T03:36:43.527Z,89.42
2022-12-28T03:39:17.615Z,89.80
2022-12-28T03:41:52.092Z,89.41
2022-12-28T03:44:24.652Z,89.49
2022-12-28T03:46:57.307Z,89.60
2022-12-28T03:49:29.454Z,89.28
2022-12-28T03:51:57.830Z,89.38
2022-12-28T03:54:26.254Z,89.20
2022-12-28T03:56:53.786Z,89.37
2022-12-28T03:59:21.450Z,89.12
2022-12-28T04:01:49.515Z,88.54
2022-12-28T04:04:17.188Z,88.84
2022-12-28T04:06:46.078Z,89.03
2022-12-28T04:09:15.771Z,87.99
2022-12-28T04:11:43.358Z,88.06
2022-12-28T04:14:11.475Z,88.03
2022-12-28T04:16:39.501Z,87.74
2022-12-28T04:19:07.085Z,88.43
2022-12-28T04:21:34.677Z,88.99
2022-12-28T04:24:04.068Z,89.42
2022-12-28T04:26:31.754Z,88.63
2022-12-28T04:29:02.005Z,88.68
2022-12-28T04:31:30.709Z,88.61
2022-12-28T04:33:59.513Z,88.86
2022-12-28T04:36:27.204Z,87.99
2022-12-28T04:38:55.157Z,87.36
2022-12-28T04:41:24.134Z,87.85
2022-12-28T04:43:52.369Z,87.95
2022-12-28T04:46:22.361Z,87.76
2022-12-28T04:48:49.879Z,87.08
2022-12-28T04:51:20.258Z,88.39
2022-12-28T04:53:48.449Z,87.83
2022-12-28T04:56:19.088Z,87.63
2022-12-28T04:58:48.979Z,87.42
2022-12-28T05:01:19.755Z,87.63
2022-12-28T05:03:55.092Z,87.55
2022-12-28T05:06:25.116Z,87.70
2022-12-28T05:08:52.770Z,87.60
2022-12-28T05:11:22.142Z,87.48
2022-12-28T05:13:51.560Z,87.82
2022-12-28T05:16:21.866Z,87.83
2022-12-28T05:18:50.278Z,87.79
2022-12-28T05:21:19.758Z,87.91
2022-12-28T05:23:48.937Z,87.32
2022-12-28T05:26:18.889Z,87.11
2022-12-28T05:28:46.858Z,87.39
2022-12-28T05:31:18.418Z,87.30
2022-12-28T05:33:47.787Z,87.33
2022-12-28T05:36:17.494Z,87.38
2022-12-28T05:38:45.757Z,87.13
2022-12-28T05:41:15.470Z,86.15
2022-12-28T05:43:44.151Z,86.30
2022-12-28T05:46:14.696Z,86.42
2022-12-28T05:48:44.136Z,86.69
2022-12-28T05:51:13.897Z,86.68
2022-12-28T05:53:42.192Z,86.48
2022-12-28T05:56:14.668Z,86.60
2022-12-28T05:58:43.201Z,86.31
2022-12-28T06:01:13.081Z,86.30
2022-12-28T06:03:41.535Z,86.50
2022-12-28T06:06:12.921Z,86.62
2022-12-28T06:08:44.790Z,87.04
2022-12-28T06:11:14.816Z,86.22
2022-12-28T06:13:42.561Z,86.06
2022-12-28T06:16:12.520Z,85.71
2022-12-28T06:18:40.284Z,86.36
2022-12-28T06:21:11.574Z,86.40
2022-12-28T06:23:39.447Z,87.06
2022-12-28T06:26:08.791Z,86.75
2022-12-28T06:28:37.891Z,86.33
2022-12-28T06:31:07.301Z,85.32
2022-12-28T06:33:35.628Z,85.78
2022-12-28T06:36:03.518Z,86.07
2022-12-28T06:38:34.369Z,86.23
2022-12-28T06:41:14.110Z,85.88
2022-12-28T06:43:44.045Z,86.66
2022-12-28T06:46:12.498Z,86.35
2022-12-28T06:48:42.893Z,86.49
2022-12-28T06:51:14.124Z,86.15
2022-12-28T06:53:44.875Z,86.47
2022-12-28T06:56:14.826Z,85.65
2022-12-28T06:58:42.761Z,86.29
2022-12-28T07:01:13.603Z,86.44
2022-12-28T07:03:41.721Z,86.90
2022-12-28T07:06:10.075Z,86.35
2022-12-28T07:08:38.283Z,85.33
2022-12-28T07:11:09.696Z,85.87
2022-12-28T07:13:37.669Z,86.04
2022-12-28T07:16:07.646Z,85.99
2022-12-28T07:18:35.408Z,85.53
2022-12-28T07:21:05.545Z,85.71
2022-12-28T07:23:35.617Z,85.80
2022-12-28T07:26:09.637Z,85.85
2022-12-28T07:28:38.369Z,86.40
2022-12-28T07:31:08.166Z,86.19
2022-12-28T07:33:37.291Z,86.45
2022-12-28T07:36:06.603Z,86.70
2022-12-28T07:38:36.062Z,86.40
2022-12-28T07:41:04.946Z,85.82
2022-12-28T07:43:34.533Z,85.97
2022-12-28T07:46:03.540Z,85.93
2022-12-28T07:48:32.383Z,86.10
2022-12-28T07:51:07.812Z,85.97
2022-12-28T07:53:35.749Z,85.69
2022-12-28T07:56:03.915Z,85.50
2022-12-28T07:58:31.518Z,85.69
2022-12-28T08:01:06.944Z,85.92
2022-12-28T08:03:35.291Z,85.28
2022-12-28T08:06:05.185Z,85.20
2022-12-28T08:08:36.002Z,84.92
2022-12-28T08:11:05.506Z,85.23
2022-12-28T08:13:35.004Z,85.47
2022-12-28T08:16:03.405Z,85.36
2022-12-28T08:18:32.978Z,85.07
2022-12-28T08:21:05.715Z,84.81
2022-12-28T08:23:33.947Z,85.62
2022-12-28T08:26:06.865Z,85.63
2022-12-28T08:28:34.699Z,85.32
2022-12-28T08:31:07.435Z,85.21
2022-12-28T08:33:36.631Z,84.72
2022-12-28T08:36:04.351Z,84.71
2022-12-28T08:38:31.994Z,84.73
2022-12-28T08:41:01.023Z,84.44
2022-12-28T08:43:34.081Z,84.12
2022-12-28T08:46:03.623Z,84.87
2022-12-28T08:48:33.065Z,84.02
2022-12-28T08:51:05.621Z,83.14
2022-12-28T08:53:33.534Z,83.56
2022-12-28T08:56:06.792Z,83.38
2022-12-28T08:58:35.198Z,82.61
2022-12-28T09:01:07.427Z,82.91
2022-12-28T09:03:36.745Z,82.38
2022-12-28T09:06:07.174Z,81.97
2022-12-28T09:08:35.151Z,81.11
2022-12-28T09:11:05.401Z,81.24
2022-12-28T09:13:34.024Z,81.33
2022-12-28T09:16:04.022Z,81.56
2022-12-28T09:18:31.935Z,81.01
2022-12-28T09:21:09.861Z,80.61
2022-12-28T09:23:38.771Z,81.48
2022-12-28T09:26:08.020Z,81.03
2022-12-28T09:28:37.121Z,80.73
2022-12-28T09:31:05.749Z,80.74
2022-12-28T09:34:32.075Z,80.00
2022-12-28T09:36:43.084Z,79.39
2022-12-28T09:39:14.036Z,79.39
2022-12-28T09:41:48.132Z,79.79
2022-12-28T09:44:33.103Z,78.68
2022-12-28T09:47:07.152Z,78.23
2022-12-28T09:49:41.875Z,78.17
2022-12-28T09:52:27.490Z,79.15
2022-12-28T09:54:56.044Z,79.48
2022-12-28T09:57:25.582Z,79.11
2022-12-28T09:59:54.139Z,79.17
2022-12-28T10:02:27.468Z,78.16
2022-12-28T10:04:55.433Z,77.64
2022-12-28T10:07:28.764Z,76.94
2022-12-28T10:09:56.451Z,75.70
2022-12-28T10:15:09.292Z,75.38
2022-12-28T10:17:36.943Z,75.78
2022-12-28T10:20:07.983Z,76.15
2022-12-28T10:22:49.878Z,76.54
2022-12-28T10:25:20.517Z,76.49
2022-12-28T10:27:48.687Z,75.85
2022-12-28T10:30:18.748Z,75.79
2022-12-28T10:32:51.814Z,76.42
2022-12-28T10:35:25.551Z,76.26
2022-12-28T10:38:00.740Z,75.95
2022-12-28T10:40:31.469Z,75.74
2022-12-28T10:43:02.096Z,75.32
2022-12-28T10:45:37.355Z,75.23
2022-12-28T10:48:11.018Z,76.81
2022-12-28T10:50:48.714Z,76.70
2022-12-28T10:53:26.827Z,77.11
2022-12-28T10:56:21.841Z,76.60
2022-12-28T10:58:53.781Z,76.45
2022-12-28T11:01:26.947Z,76.98
2022-12-28T11:04:07.370Z,77.90
2022-12-28T11:06:36.715Z,76.78
2022-12-28T11:09:15.498Z,77.67
2022-12-28T11:11:44.487Z,77.71
2022-12-28T11:14:18.632Z,76.98
2022-12-28T11:16:46.291Z,76.47
2022-12-28T11:19:14.322Z,75.83
2022-12-28T11:21:47.403Z,74.75
2022-12-28T11:24:18.529Z,74.31
2022-12-28T11:26:48.914Z,73.85
2022-12-28T11:29:18.700Z,73.45
2022-12-28T11:31:50.549Z,73.84
2022-12-28T11:34:24.293Z,73.92
2022-12-28T11:36:52.573Z,74.66
2022-12-28T11:39:46.228Z,73.23
2022-12-28T11:42:41.819Z,72.89
2022-12-28T11:45:14.312Z,71.82
2022-12-28T11:47:42.032Z,73.04
2022-12-28T11:50:42.174Z,73.90
2022-12-28T11:53:43.892Z,74.24
2022-12-28T11:56:14.061Z,73.75
2022-12-28T11:58:48.552Z,72.56
2022-12-28T12:01:44.428Z,72.85
2022-12-28T12:04:34.245Z,73.71
2022-12-28T12:07:31.581Z,73.58
2022-12-28T12:10:31.661Z,73.55
2022-12-28T12:13:06.895Z,74.57
2022-12-28T12:15:41.387Z,73.83
2022-12-28T12:18:19.190Z,74.81
2022-12-28T12:20:58.606Z,75.17
2022-12-28T12:23:35.203Z,75.68
2022-12-28T12:26:21.029Z,74.55
2022-12-28T12:28:52.705Z,74.12
2022-12-28T12:31:29.613Z,74.93
2022-12-28T12:34:03.559Z,74.81
2022-12-28T12:36:52.993Z,75.05
2022-12-28T12:39:46.826Z,74.80
2022-12-28T12:42:27.360Z,76.03
2022-12-28T12:45:00.267Z,75.85
2022-12-28T12:47:58.745Z,76.42
2022-12-28T12:50:57.581Z,77.13
2022-12-28T12:53:43.130Z,77.64
2022-12-28T12:56:30.464Z,77.92
2022-12-28T12:59:18.526Z,77.79
2022-12-28T13:01:54.924Z,78.94
2022-12-28T13:04:25.441Z,78.31
2022-12-28T13:06:59.992Z,78.22
2022-12-28T13:09:31.867Z,77.92
2022-12-28T13:12:02.796Z,79.10
2022-12-28T13:14:30.997Z,78.51
2022-12-28T13:17:01.711Z,78.22
2022-12-28T13:19:30.748Z,77.98
2022-12-28T13:21:59.610Z,77.85
2022-12-28T13:24:35.980Z,78.29
2022-12-28T13:27:19.771Z,77.77
2022-12-28T13:29:55.041Z,78.21
2022-12-28T13:32:36.043Z,77.90
2022-12-28T13:35:17.959Z,78.07
2022-12-28T13:37:59.757Z,78.10
2022-12-28T13:40:31.333Z,78.41
2022-12-28T13:43:19.144Z,77.89
2022-12-28T13:45:52.205Z,78.05
2022-12-28T13:48:24.555Z,78.71
2022-12-28T13:50:53.391Z,77.73
2022-12-28T13:53:26.335Z,78.18
2022-12-28T13:55:59.389Z,78.88
2022-12-28T13:58:32.878Z,78.14
2022-12-28T14:01:04.374Z,78.07
2022-12-28T14:03:41.430Z,79.08
2022-12-28T14:06:16.230Z,79.22
2022-12-28T14:08:46.773Z,78.55
2022-12-28T14:11:16.017Z,78.37
2022-12-28T14:13:44.036Z,78.48
2022-12-28T14:16:12.168Z,78.38
2022-12-28T14:18:47.591Z,78.60
2022-12-28T14:21:18.061Z,78.75
2022-12-28T14:23:45.891Z,79.30
2022-12-28T14:26:21.688Z,78.72
2022-12-28T14:28:53.726Z,78.86
2022-12-28T14:31:27.813Z,78.78
2022-12-28T14:33:58.628Z,78.45
2022-12-28T14:36:30.861Z,78.53
2022-12-28T14:41:49.873Z,78.84
2022-12-28T14:44:27.529Z,78.59
2022-12-28T14:47:00.035Z,78.58
2022-12-28T14:49:38.106Z,78.83
2022-12-28T14:52:42.908Z,78.92
2022-12-28T14:55:35.544Z,79.51
2022-12-28T14:58:07.254Z,78.81
2022-12-28T15:00:25.117Z,78.03
2022-12-28T15:00:36.363Z,78.68
2022-12-28T15:03:19.855Z,78.65
2022-12-28T15:05:50.914Z,78.72
2022-12-28T15:08:18.832Z,78.66
2022-12-28T15:10:52.178Z,77.84
2022-12-28T15:13:21.000Z,77.81
2022-12-28T15:15:56.480Z,78.21
2022-12-28T15:18:24.479Z,77.69
2022-12-28T15:20:54.655Z,78.28
2022-12-28T15:23:22.886Z,78.13
2022-12-28T15:25:51.198Z,77.61
2022-12-28T15:28:19.254Z,77.60
2022-12-28T15:30:47.303Z,77.64
2022-12-28T15:33:14.958Z,77.59
2022-12-28T15:35:43.247Z,77.85
2022-12-28T15:38:15.091Z,77.07
2022-12-28T15:40:42.845Z,76.69
2022-12-28T15:43:10.466Z,77.43
2022-12-28T15:45:38.440Z,76.82
2022-12-28T15:48:06.690Z,76.84
2022-12-28T15:50:35.172Z,76.29
2022-12-28T15:53:02.694Z,76.56
2022-12-28T15:55:36.383Z,75.80
2022-12-28T15:58:04.120Z,76.20
2022-12-28T16:00:33.908Z,75.32
2022-12-28T16:03:01.947Z,75.43
2022-12-28T16:05:29.867Z,75.64
2022-12-28T16:07:57.679Z,75.49
2022-12-28T16:10:27.355Z,75.15
2022-12-28T16:12:56.737Z,75.70
2022-12-28T16:15:24.302Z,76.01
2022-12-28T16:17:57.249Z,75.93
2022-12-28T16:20:25.649Z,76.05
2022-12-28T16:48:04.551Z,75.31
2022-12-28T16:50:38.180Z,74.94
2022-12-28T16:53:12.921Z,74.40
2022-12-28T16:55:45.382Z,74.26
2022-12-28T16:58:18.124Z,74.28
2022-12-28T17:00:51.089Z,74.47
2022-12-28T17:03:29.096Z,74.50
2022-12-28T17:05:59.034Z,73.82
2022-12-28T17:08:42.708Z,73.73
2022-12-28T17:11:15.912Z,74.27
2022-12-28T17:13:46.652Z,74.17
2022-12-28T17:16:18.349Z,73.57
2022-12-28T17:18:55.887Z,74.28
2022-12-28T17:21:35.999Z,73.71
2022-12-28T17:24:10.207Z,73.31
2022-12-28T17:26:42.674Z,73.53
2022-12-28T17:29:12.847Z,73.93
2022-12-28T17:31:52.488Z,73.63
2022-12-28T17:34:29.842Z,73.75
2022-12-28T17:37:04.981Z,73.96
2022-12-28T17:39:40.540Z,73.18
2022-12-28T17:42:13.547Z,73.29
2022-12-28T17:44:46.121Z,73.00
2022-12-28T17:47:19.556Z,73.29
2022-12-28T17:49:59.406Z,73.64
2022-12-28T17:52:29.616Z,73.10
2022-12-28T17:55:03.523Z,73.36
2022-12-28T17:57:39.850Z,73.23
2022-12-28T18:00:11.702Z,73.33
2022-12-28T18:02:47.676Z,73.55
2022-12-28T18:05:19.122Z,73.31
2022-12-28T18:07:49.179Z,74.00
2022-12-28T18:10:18.337Z,73.90
2022-12-28T18:12:49.717Z,74.69
2022-12-28T18:15:27.343Z,74.80
2022-12-28T18:18:04.762Z,75.03
2022-12-28T18:20:42.832Z,74.26
2022-12-28T18:23:15.287Z,74.37
2022-12-28T18:25:46.180Z,75.24
2022-12-28T18:28:15.529Z,75.64
2022-12-28T18:30:46.038Z,75.53
2022-12-28T18:33:15.164Z,75.12
2022-12-28T18:35:48.898Z,75.31
2022-12-28T18:38:35.364Z,75.44
2022-12-28T18:41:05.439Z,74.99
2022-12-28T18:43:37.038Z,75.18
2022-12-28T18:46:19.486Z,74.93
2022-12-28T18:48:49.906Z,74.75
2022-12-28T18:51:24.780Z,73.88
2022-12-28T18:53:54.951Z,73.72
2022-12-28T18:56:27.159Z,74.61
2022-12-28T18:58:59.235Z,73.78
2022-12-28T19:02:05.184Z,73.86
2022-12-28T19:04:24.928Z,74.41
2022-12-28T19:06:56.147Z,73.61
2022-12-28T19:09:30.229Z,73.87
2022-12-28T19:12:00.343Z,72.74
2022-12-28T19:14:30.293Z,73.47
2022-12-28T19:17:05.526Z,72.96
2022-12-28T19:19:36.428Z,72.84
2022-12-28T19:22:22.448Z,73.14
2022-12-28T19:24:51.456Z,73.49
2022-12-28T19:27:24.628Z,73.92
2022-12-28T19:29:56.069Z,74.36
2022-12-28T19:32:26.546Z,74.16
2022-12-28T19:34:57.434Z,74.09
2022-12-28T19:37:29.862Z,74.19
2022-12-28T19:40:01.038Z,73.36
2022-12-28T19:42:30.113Z,73.63
2022-12-28T19:45:04.869Z,73.55
2022-12-28T19:47:39.257Z,73.53
2022-12-28T19:50:10.155Z,73.52
2022-12-28T19:52:39.762Z,73.73
2022-12-28T19:55:07.844Z,73.95
2022-12-28T19:57:37.297Z,73.42
2022-12-28T20:00:06.178Z,74.28
2022-12-28T20:02:34.051Z,74.08
2022-12-28T20:05:02.164Z,74.44
2022-12-28T20:07:29.993Z,74.11
2022-12-28T20:10:03.134Z,74.19
2022-12-28T20:12:31.077Z,73.67
2022-12-28T20:14:58.801Z,74.31
2022-12-28T20:17:26.397Z,73.96
2022-12-28T20:19:56.674Z,74.35
2022-12-28T20:22:24.402Z,74.67
2022-12-28T20:24:52.376Z,74.28
2022-12-28T20:27:25.842Z,73.63
2022-12-28T20:29:54.574Z,73.71
2022-12-28T20:32:22.211Z,73.54
2022-12-28T20:34:50.054Z,73.30
2022-12-28T20:37:17.750Z,73.71
2022-12-28T20:39:45.427Z,73.42
2022-12-28T20:42:32.444Z,73.02
2022-12-28T20:45:01.407Z,73.15
2022-12-28T20:47:28.953Z,75.51
2022-12-28T20:49:56.947Z,74.10
2022-12-28T20:52:24.629Z,73.91
2022-12-28T20:54:52.209Z,74.26
2022-12-28T20:57:20.039Z,75.09
2022-12-28T20:59:47.611Z,74.51
2022-12-28T21:02:17.082Z,73.24
2022-12-28T21:04:44.714Z,74.80
2022-12-28T21:07:12.458Z,73.58
2022-12-28T21:09:41.144Z,73.56
2022-12-28T21:12:08.911Z,74.41
2022-12-28T21:14:36.461Z,73.94
2022-12-28T21:17:04.115Z,73.20
2022-12-28T21:19:33.039Z,72.67
2022-12-28T21:22:00.778Z,72.66
2022-12-28T21:24:28.451Z,72.27
2022-12-28T21:26:56.097Z,72.36
2022-12-28T21:29:26.007Z,72.78
2022-12-28T21:31:54.195Z,72.33
2022-12-28T21:34:22.427Z,73.01
2022-12-28T21:36:54.060Z,73.18
2022-12-28T21:39:22.995Z,73.34
2022-12-28T21:41:50.865Z,73.44
2022-12-28T21:44:21.918Z,74.10
2022-12-28T21:46:51.086Z,73.89
2022-12-28T21:49:19.358Z,73.97
2022-12-28T21:51:47.103Z,73.65
2022-12-28T21:54:18.343Z,73.67
2022-12-28T21:56:48.010Z,73.31
2022-12-28T21:59:15.850Z,73.19
2022-12-28T22:02:01.469Z,73.12
2022-12-28T22:04:47.415Z,73.21
2022-12-28T22:07:24.303Z,73.48
2022-12-28T22:10:10.852Z,74.16
2022-12-28T22:12:38.981Z,74.17
2022-12-28T22:15:27.614Z,74.06
2022-12-28T22:18:12.774Z,73.60
2022-12-28T22:20:48.366Z,73.74
2022-12-28T22:23:18.391Z,74.05
2022-12-28T22:25:49.631Z,73.97
2022-12-28T22:28:18.511Z,74.75
2022-12-28T22:30:47.633Z,75.37
2022-12-28T22:33:16.407Z,75.80
2022-12-28T22:35:47.927Z,75.06
2022-12-28T22:38:16.864Z,75.40
2022-12-28T22:40:45.595Z,75.51
2022-12-28T22:43:15.819Z,74.49
2022-12-28T22:46:17.853Z,74.89
2022-12-28T22:48:47.332Z,74.67
2022-12-28T22:51:18.277Z,74.85
2022-12-28T22:53:48.262Z,74.93
2022-12-28T22:56:21.301Z,75.41
2022-12-28T22:58:52.492Z,75.09
2022-12-28T23:01:21.998Z,75.16
2022-12-28T23:03:52.214Z,75.56
2022-12-28T23:06:22.029Z,75.96
2022-12-28T23:08:50.948Z,75.78
2022-12-28T23:11:37.131Z,76.25
2022-12-28T23:14:26.516Z,76.15
2022-12-28T23:16:55.230Z,76.57
2022-12-28T23:19:41.058Z,76.97
2022-12-28T23:22:27.032Z,77.41
2022-12-28T23:25:13.142Z,77.49
2022-12-28T23:27:43.753Z,77.48
2022-12-28T23:30:17.757Z,77.79
2022-12-28T23:32:46.110Z,78.61
2022-12-28T23:35:15.363Z,78.37
2022-12-28T23:37:45.928Z,78.45
2022-12-28T23:40:18.817Z,78.95
2022-12-28T23:42:48.152Z,78.81
2022-12-28T23:45:19.580Z,78.39
2022-12-28T23:47:48.391Z,78.48
2022-12-28T23:50:17.805Z,78.62
2022-12-28T23:52:45.729Z,78.82
2022-12-28T23:55:34.141Z,78.73
2022-12-28T23:58:01.716Z,78.60
